sensor_id;sensor_type;location;lat;lon;timestamp;P1;durP1;ratioP1;P2;durP2;ratioP2
50363;SDS011;36272;59.400;17.982;2023-04-06T00:00:22;15.52;;;6.88;;
50363;SDS011;36272;59.400;17.982;2023-04-06T00:05:24;14.88;;;7.10;;
50363;SDS011;36272;59.400;17.982;2023-04-06T00:10:26;21.13;;;7.25;;
50363;SDS011;36272;59.400;17.982;2023-04-06T00:15:28;17.23;;;7.20;;
50363;SDS011;36272;59.400;17.982;2023-04-06T00:20:30;15.13;;;7.13;;
50363;SDS011;36272;59.400;17.982;2023-04-06T00:25:32;23.65;;;7.65;;
50363;SDS011;36272;59.400;17.982;2023-04-06T00:30:33;13.75;;;6.63;;
50363;SDS011;36272;59.400;17.982;2023-04-06T00:35:35;15.02;;;6.93;;
50363;SDS011;36272;59.400;17.982;2023-04-06T00:40:37;14.40;;;6.43;;
50363;SDS011;36272;59.400;17.982;2023-04-06T00:45:41;17.92;;;7.28;;
50363;SDS011;36272;59.400;17.982;2023-04-06T00:50:43;16.13;;;6.63;;
50363;SDS011;36272;59.400;17.982;2023-04-06T00:55:45;17.83;;;7.25;;
50363;SDS011;36272;59.400;17.982;2023-04-06T01:00:47;18.00;;;7.10;;
50363;SDS011;36272;59.400;17.982;2023-04-06T01:05:49;15.48;;;6.65;;
50363;SDS011;36272;59.400;17.982;2023-04-06T01:10:53;15.15;;;6.70;;
50363;SDS011;36272;59.400;17.982;2023-04-06T01:15:55;13.93;;;6.63;;
50363;SDS011;36272;59.400;17.982;2023-04-06T01:20:57;16.13;;;6.78;;
50363;SDS011;36272;59.400;17.982;2023-04-06T01:25:59;17.75;;;6.93;;
50363;SDS011;36272;59.400;17.982;2023-04-06T01:31:01;15.20;;;6.95;;
50363;SDS011;36272;59.400;17.982;2023-04-06T01:36:03;13.80;;;6.70;;
50363;SDS011;36272;59.400;17.982;2023-04-06T01:41:05;15.88;;;6.85;;
50363;SDS011;36272;59.400;17.982;2023-04-06T01:46:07;17.63;;;7.20;;
50363;SDS011;36272;59.400;17.982;2023-04-06T01:51:09;16.35;;;6.25;;
50363;SDS011;36272;59.400;17.982;2023-04-06T01:56:10;16.38;;;6.50;;
50363;SDS011;36272;59.400;17.982;2023-04-06T02:01:17;20.38;;;7.25;;
50363;SDS011;36272;59.400;17.982;2023-04-06T02:06:19;14.23;;;7.70;;
50363;SDS011;36272;59.400;17.982;2023-04-06T02:11:21;17.13;;;7.78;;
50363;SDS011;36272;59.400;17.982;2023-04-06T02:16:22;15.35;;;7.22;;
50363;SDS011;36272;59.400;17.982;2023-04-06T02:21:24;16.45;;;7.53;;
50363;SDS011;36272;59.400;17.982;2023-04-06T02:26:26;19.70;;;8.35;;
50363;SDS011;36272;59.400;17.982;2023-04-06T02:31:27;16.95;;;7.60;;
50363;SDS011;36272;59.400;17.982;2023-04-06T02:36:29;16.52;;;7.35;;
50363;SDS011;36272;59.400;17.982;2023-04-06T02:41:31;18.08;;;8.07;;
50363;SDS011;36272;59.400;17.982;2023-04-06T02:46:33;19.48;;;8.05;;
50363;SDS011;36272;59.400;17.982;2023-04-06T02:51:34;22.17;;;8.73;;
50363;SDS011;36272;59.400;17.982;2023-04-06T02:56:36;24.00;;;8.00;;
50363;SDS011;36272;59.400;17.982;2023-04-06T03:01:38;23.23;;;9.45;;
50363;SDS011;36272;59.400;17.982;2023-04-06T03:06:40;20.45;;;9.25;;
50363;SDS011;36272;59.400;17.982;2023-04-06T03:11:47;21.25;;;10.38;;
50363;SDS011;36272;59.400;17.982;2023-04-06T03:16:48;17.95;;;8.90;;
50363;SDS011;36272;59.400;17.982;2023-04-06T03:21:53;18.90;;;9.07;;
50363;SDS011;36272;59.400;17.982;2023-04-06T03:26:55;19.60;;;9.00;;
50363;SDS011;36272;59.400;17.982;2023-04-06T03:31:57;26.25;;;9.88;;
50363;SDS011;36272;59.400;17.982;2023-04-06T03:36:59;20.30;;;9.32;;
50363;SDS011;36272;59.400;17.982;2023-04-06T03:42:06;20.58;;;9.32;;
50363;SDS011;36272;59.400;17.982;2023-04-06T03:47:07;22.95;;;9.93;;
50363;SDS011;36272;59.400;17.982;2023-04-06T03:52:09;18.25;;;9.95;;
50363;SDS011;36272;59.400;17.982;2023-04-06T03:57:11;18.00;;;9.60;;
50363;SDS011;36272;59.400;17.982;2023-04-06T04:02:13;17.40;;;8.95;;
50363;SDS011;36272;59.400;17.982;2023-04-06T04:07:15;19.95;;;9.68;;
50363;SDS011;36272;59.400;17.982;2023-04-06T04:12:16;19.20;;;9.98;;
50363;SDS011;36272;59.400;17.982;2023-04-06T04:17:18;19.58;;;10.00;;
50363;SDS011;36272;59.400;17.982;2023-04-06T04:22:20;18.73;;;9.00;;
50363;SDS011;36272;59.400;17.982;2023-04-06T04:27:21;24.10;;;9.63;;
50363;SDS011;36272;59.400;17.982;2023-04-06T04:32:23;21.52;;;10.20;;
50363;SDS011;36272;59.400;17.982;2023-04-06T04:37:28;25.70;;;9.27;;
50363;SDS011;36272;59.400;17.982;2023-04-06T04:42:30;18.25;;;8.88;;
50363;SDS011;36272;59.400;17.982;2023-04-06T04:47:31;18.45;;;9.30;;
50363;SDS011;36272;59.400;17.982;2023-04-06T04:52:33;16.55;;;9.45;;
50363;SDS011;36272;59.400;17.982;2023-04-06T04:57:35;18.40;;;9.85;;
50363;SDS011;36272;59.400;17.982;2023-04-06T05:02:36;17.98;;;8.55;;
50363;SDS011;36272;59.400;17.982;2023-04-06T05:07:38;22.70;;;10.60;;
50363;SDS011;36272;59.400;17.982;2023-04-06T05:12:40;20.05;;;9.25;;
50363;SDS011;36272;59.400;17.982;2023-04-06T05:17:45;16.35;;;9.15;;
50363;SDS011;36272;59.400;17.982;2023-04-06T05:22:46;20.95;;;9.23;;
50363;SDS011;36272;59.400;17.982;2023-04-06T05:27:48;22.52;;;9.70;;
50363;SDS011;36272;59.400;17.982;2023-04-06T05:32:50;17.40;;;9.50;;
50363;SDS011;36272;59.400;17.982;2023-04-06T05:37:52;21.60;;;9.20;;
50363;SDS011;36272;59.400;17.982;2023-04-06T05:42:54;15.30;;;8.75;;
50363;SDS011;36272;59.400;17.982;2023-04-06T05:47:56;17.77;;;8.70;;
50363;SDS011;36272;59.400;17.982;2023-04-06T05:53:03;15.27;;;9.15;;
50363;SDS011;36272;59.400;17.982;2023-04-06T05:58:04;14.75;;;9.25;;
50363;SDS011;36272;59.400;17.982;2023-04-06T06:03:06;14.40;;;8.07;;
50363;SDS011;36272;59.400;17.982;2023-04-06T06:08:09;14.57;;;8.27;;
50363;SDS011;36272;59.400;17.982;2023-04-06T06:13:11;15.73;;;8.52;;
50363;SDS011;36272;59.400;17.982;2023-04-06T06:18:13;14.88;;;8.05;;
50363;SDS011;36272;59.400;17.982;2023-04-06T06:23:14;16.25;;;7.95;;
50363;SDS011;36272;59.400;17.982;2023-04-06T06:28:16;16.60;;;8.10;;
50363;SDS011;36272;59.400;17.982;2023-04-06T06:33:18;15.38;;;8.05;;
50363;SDS011;36272;59.400;17.982;2023-04-06T06:38:20;11.38;;;7.00;;
50363;SDS011;36272;59.400;17.982;2023-04-06T06:43:22;11.45;;;7.15;;
50363;SDS011;36272;59.400;17.982;2023-04-06T06:48:23;9.38;;;6.15;;
50363;SDS011;36272;59.400;17.982;2023-04-06T06:53:29;13.20;;;6.22;;
50363;SDS011;36272;59.400;17.982;2023-04-06T06:58:30;9.82;;;6.00;;
50363;SDS011;36272;59.400;17.982;2023-04-06T07:03:32;10.55;;;6.00;;
50363;SDS011;36272;59.400;17.982;2023-04-06T07:08:34;9.02;;;5.15;;
50363;SDS011;36272;59.400;17.982;2023-04-06T07:13:36;11.93;;;5.32;;
50363;SDS011;36272;59.400;17.982;2023-04-06T07:18:37;7.93;;;5.20;;
50363;SDS011;36272;59.400;17.982;2023-04-06T07:23:39;9.25;;;5.40;;
50363;SDS011;36272;59.400;17.982;2023-04-06T07:28:41;9.48;;;5.35;;
50363;SDS011;36272;59.400;17.982;2023-04-06T07:33:43;7.70;;;5.30;;
50363;SDS011;36272;59.400;17.982;2023-04-06T07:38:44;9.05;;;5.45;;
50363;SDS011;36272;59.400;17.982;2023-04-06T07:43:47;7.85;;;4.57;;
50363;SDS011;36272;59.400;17.982;2023-04-06T07:48:49;5.80;;;3.85;;
50363;SDS011;36272;59.400;17.982;2023-04-06T07:53:51;6.43;;;4.22;;
50363;SDS011;36272;59.400;17.982;2023-04-06T07:58:53;4.45;;;3.55;;
50363;SDS011;36272;59.400;17.982;2023-04-06T08:03:57;8.60;;;3.90;;
50363;SDS011;36272;59.400;17.982;2023-04-06T08:09:00;6.30;;;4.10;;
50363;SDS011;36272;59.400;17.982;2023-04-06T08:14:01;6.40;;;4.10;;
50363;SDS011;36272;59.400;17.982;2023-04-06T08:19:03;7.97;;;3.85;;
50363;SDS011;36272;59.400;17.982;2023-04-06T08:24:05;5.57;;;2.90;;
50363;SDS011;36272;59.400;17.982;2023-04-06T08:29:08;5.93;;;2.90;;
50363;SDS011;36272;59.400;17.982;2023-04-06T08:34:09;6.60;;;2.78;;
50363;SDS011;36272;59.400;17.982;2023-04-06T08:39:11;3.65;;;2.40;;
50363;SDS011;36272;59.400;17.982;2023-04-06T08:44:13;4.10;;;2.67;;
50363;SDS011;36272;59.400;17.982;2023-04-06T08:49:19;4.78;;;2.60;;
50363;SDS011;36272;59.400;17.982;2023-04-06T08:54:22;5.75;;;2.72;;
50363;SDS011;36272;59.400;17.982;2023-04-06T08:59:24;8.05;;;2.88;;
50363;SDS011;36272;59.400;17.982;2023-04-06T09:04:26;3.92;;;2.15;;
50363;SDS011;36272;59.400;17.982;2023-04-06T09:09:28;4.38;;;2.25;;
50363;SDS011;36272;59.400;17.982;2023-04-06T09:14:37;4.82;;;2.40;;
50363;SDS011;36272;59.400;17.982;2023-04-06T09:19:46;3.55;;;2.60;;
50363;SDS011;36272;59.400;17.982;2023-04-06T09:29:51;4.95;;;2.33;;
50363;SDS011;36272;59.400;17.982;2023-04-06T09:35:08;4.88;;;2.22;;
50363;SDS011;36272;59.400;17.982;2023-04-06T09:40:10;5.18;;;2.40;;
50363;SDS011;36272;59.400;17.982;2023-04-06T09:45:15;2.90;;;1.83;;
50363;SDS011;36272;59.400;17.982;2023-04-06T09:50:17;4.07;;;2.35;;
50363;SDS011;36272;59.400;17.982;2023-04-06T09:55:26;3.47;;;2.20;;
50363;SDS011;36272;59.400;17.982;2023-04-06T10:00:42;5.13;;;2.38;;
50363;SDS011;36272;59.400;17.982;2023-04-06T10:05:50;2.97;;;2.08;;
50363;SDS011;36272;59.400;17.982;2023-04-06T10:10:59;4.45;;;2.10;;
50363;SDS011;36272;59.400;17.982;2023-04-06T10:16:02;5.35;;;2.17;;
50363;SDS011;36272;59.400;17.982;2023-04-06T10:21:11;3.97;;;1.95;;
50363;SDS011;36272;59.400;17.982;2023-04-06T10:26:19;3.60;;;2.30;;
50363;SDS011;36272;59.400;17.982;2023-04-06T10:31:25;3.30;;;2.10;;
50363;SDS011;36272;59.400;17.982;2023-04-06T10:36:31;4.22;;;2.40;;
50363;SDS011;36272;59.400;17.982;2023-04-06T10:41:36;6.97;;;4.30;;
50363;SDS011;36272;59.400;17.982;2023-04-06T10:46:53;7.47;;;2.47;;
50363;SDS011;36272;59.400;17.982;2023-04-06T10:51:56;4.03;;;2.40;;
50363;SDS011;36272;59.400;17.982;2023-04-06T10:56:58;4.00;;;2.00;;
50363;SDS011;36272;59.400;17.982;2023-04-06T11:02:05;3.78;;;2.22;;
50363;SDS011;36272;59.400;17.982;2023-04-06T11:07:06;4.00;;;2.08;;
50363;SDS011;36272;59.400;17.982;2023-04-06T11:12:08;3.25;;;2.20;;
50363;SDS011;36272;59.400;17.982;2023-04-06T11:17:25;3.63;;;2.15;;
50363;SDS011;36272;59.400;17.982;2023-04-06T11:22:30;4.95;;;2.33;;
50363;SDS011;36272;59.400;17.982;2023-04-06T11:27:35;6.53;;;2.20;;
50363;SDS011;36272;59.400;17.982;2023-04-06T11:32:41;3.33;;;2.22;;
50363;SDS011;36272;59.400;17.982;2023-04-06T11:37:44;5.63;;;3.15;;
50363;SDS011;36272;59.400;17.982;2023-04-06T11:42:53;3.72;;;2.17;;
50363;SDS011;36272;59.400;17.982;2023-04-06T11:47:59;2.80;;;1.98;;
50363;SDS011;36272;59.400;17.982;2023-04-06T11:53:01;2.95;;;2.00;;
50363;SDS011;36272;59.400;17.982;2023-04-06T11:58:06;2.33;;;1.53;;
50363;SDS011;36272;59.400;17.982;2023-04-06T12:03:08;5.45;;;2.10;;
50363;SDS011;36272;59.400;17.982;2023-04-06T12:08:10;3.25;;;1.90;;
50363;SDS011;36272;59.400;17.982;2023-04-06T12:13:11;4.43;;;1.88;;
50363;SDS011;36272;59.400;17.982;2023-04-06T12:18:13;4.32;;;2.22;;
50363;SDS011;36272;59.400;17.982;2023-04-06T12:23:15;4.03;;;2.22;;
50363;SDS011;36272;59.400;17.982;2023-04-06T12:28:17;4.40;;;2.00;;
50363;SDS011;36272;59.400;17.982;2023-04-06T12:33:19;6.10;;;2.25;;
50363;SDS011;36272;59.400;17.982;2023-04-06T12:38:21;5.05;;;2.03;;
50363;SDS011;36272;59.400;17.982;2023-04-06T12:43:22;4.88;;;2.00;;
50363;SDS011;36272;59.400;17.982;2023-04-06T12:48:24;3.25;;;1.92;;
50363;SDS011;36272;59.400;17.982;2023-04-06T12:53:26;2.67;;;1.85;;
50363;SDS011;36272;59.400;17.982;2023-04-06T12:58:28;2.88;;;1.88;;
50363;SDS011;36272;59.400;17.982;2023-04-06T13:03:33;6.78;;;2.17;;
50363;SDS011;36272;59.400;17.982;2023-04-06T13:08:35;7.93;;;1.80;;
50363;SDS011;36272;59.400;17.982;2023-04-06T13:13:38;3.17;;;1.92;;
50363;SDS011;36272;59.400;17.982;2023-04-06T13:18:40;5.38;;;2.20;;
50363;SDS011;36272;59.400;17.982;2023-04-06T13:23:42;4.95;;;1.70;;
50363;SDS011;36272;59.400;17.982;2023-04-06T13:28:44;4.40;;;1.77;;
50363;SDS011;36272;59.400;17.982;2023-04-06T13:33:46;3.33;;;1.85;;
50363;SDS011;36272;59.400;17.982;2023-04-06T13:38:58;18.42;;;2.70;;
50363;SDS011;36272;59.400;17.982;2023-04-06T13:44:00;14.15;;;2.20;;
50363;SDS011;36272;59.400;17.982;2023-04-06T13:49:14;5.43;;;1.98;;
50363;SDS011;36272;59.400;17.982;2023-04-06T13:54:16;3.47;;;1.80;;
50363;SDS011;36272;59.400;17.982;2023-04-06T13:59:18;10.52;;;1.85;;
50363;SDS011;36272;59.400;17.982;2023-04-06T14:04:20;9.05;;;1.90;;
50363;SDS011;36272;59.400;17.982;2023-04-06T14:09:21;12.63;;;2.30;;
50363;SDS011;36272;59.400;17.982;2023-04-06T14:14:23;13.95;;;2.50;;
50363;SDS011;36272;59.400;17.982;2023-04-06T14:19:30;27.92;;;3.50;;
50363;SDS011;36272;59.400;17.982;2023-04-06T14:24:31;64.20;;;5.40;;
50363;SDS011;36272;59.400;17.982;2023-04-06T14:29:33;3.08;;;1.60;;
50363;SDS011;36272;59.400;17.982;2023-04-06T14:34:36;2.50;;;1.65;;
50363;SDS011;36272;59.400;17.982;2023-04-06T14:39:49;3.50;;;2.15;;
50363;SDS011;36272;59.400;17.982;2023-04-06T14:44:50;2.85;;;1.50;;
50363;SDS011;36272;59.400;17.982;2023-04-06T14:49:55;2.63;;;2.00;;
50363;SDS011;36272;59.400;17.982;2023-04-06T14:54:57;3.97;;;1.95;;
50363;SDS011;36272;59.400;17.982;2023-04-06T15:00:04;5.72;;;2.20;;
50363;SDS011;36272;59.400;17.982;2023-04-06T15:05:09;2.22;;;1.70;;
50363;SDS011;36272;59.400;17.982;2023-04-06T15:10:20;3.08;;;1.80;;
50363;SDS011;36272;59.400;17.982;2023-04-06T15:15:22;2.05;;;1.70;;
50363;SDS011;36272;59.400;17.982;2023-04-06T15:20:24;6.57;;;1.70;;
50363;SDS011;36272;59.400;17.982;2023-04-06T15:25:26;4.65;;;2.00;;
50363;SDS011;36272;59.400;17.982;2023-04-06T15:30:27;2.60;;;2.00;;
50363;SDS011;36272;59.400;17.982;2023-04-06T15:35:29;6.85;;;2.30;;
50363;SDS011;36272;59.400;17.982;2023-04-06T15:40:31;8.68;;;2.42;;
50363;SDS011;36272;59.400;17.982;2023-04-06T15:45:32;3.53;;;2.20;;
50363;SDS011;36272;59.400;17.982;2023-04-06T15:50:40;4.10;;;2.00;;
50363;SDS011;36272;59.400;17.982;2023-04-06T15:55:41;4.35;;;2.25;;
50363;SDS011;36272;59.400;17.982;2023-04-06T16:00:43;4.55;;;2.22;;
50363;SDS011;36272;59.400;17.982;2023-04-06T16:05:45;3.35;;;2.28;;
50363;SDS011;36272;59.400;17.982;2023-04-06T16:10:47;6.40;;;2.60;;
50363;SDS011;36272;59.400;17.982;2023-04-06T16:15:50;4.38;;;2.10;;
50363;SDS011;36272;59.400;17.982;2023-04-06T16:20:52;7.20;;;2.17;;
50363;SDS011;36272;59.400;17.982;2023-04-06T16:25:54;7.15;;;2.35;;
50363;SDS011;36272;59.400;17.982;2023-04-06T16:30:57;4.78;;;2.42;;
50363;SDS011;36272;59.400;17.982;2023-04-06T16:35:59;5.68;;;2.67;;
50363;SDS011;36272;59.400;17.982;2023-04-06T16:41:01;4.85;;;2.10;;
50363;SDS011;36272;59.400;17.982;2023-04-06T16:46:03;4.30;;;2.25;;
50363;SDS011;36272;59.400;17.982;2023-04-06T16:51:05;3.92;;;2.38;;
50363;SDS011;36272;59.400;17.982;2023-04-06T16:56:09;4.78;;;2.40;;
50363;SDS011;36272;59.400;17.982;2023-04-06T17:01:18;7.20;;;2.55;;
50363;SDS011;36272;59.400;17.982;2023-04-06T17:06:20;5.20;;;2.60;;
50363;SDS011;36272;59.400;17.982;2023-04-06T17:11:22;4.80;;;2.50;;
50363;SDS011;36272;59.400;17.982;2023-04-06T17:16:23;4.53;;;2.40;;
50363;SDS011;36272;59.400;17.982;2023-04-06T17:21:25;3.42;;;2.42;;
50363;SDS011;36272;59.400;17.982;2023-04-06T17:26:27;3.70;;;2.65;;
50363;SDS011;36272;59.400;17.982;2023-04-06T17:31:29;7.80;;;2.88;;
50363;SDS011;36272;59.400;17.982;2023-04-06T17:36:31;4.78;;;2.50;;
50363;SDS011;36272;59.400;17.982;2023-04-06T17:41:38;4.15;;;2.63;;
50363;SDS011;36272;59.400;17.982;2023-04-06T17:46:39;3.72;;;2.30;;
50363;SDS011;36272;59.400;17.982;2023-04-06T17:51:41;4.95;;;3.22;;
50363;SDS011;36272;59.400;17.982;2023-04-06T17:56:43;7.05;;;3.25;;
50363;SDS011;36272;59.400;17.982;2023-04-06T18:01:45;7.05;;;3.15;;
50363;SDS011;36272;59.400;17.982;2023-04-06T18:06:46;6.30;;;3.25;;
50363;SDS011;36272;59.400;17.982;2023-04-06T18:11:48;5.15;;;3.35;;
50363;SDS011;36272;59.400;17.982;2023-04-06T18:16:50;5.35;;;3.05;;
50363;SDS011;36272;59.400;17.982;2023-04-06T18:21:51;5.43;;;3.75;;
50363;SDS011;36272;59.400;17.982;2023-04-06T18:26:53;5.47;;;3.70;;
50363;SDS011;36272;59.400;17.982;2023-04-06T18:31:55;4.43;;;3.47;;
50363;SDS011;36272;59.400;17.982;2023-04-06T18:36:56;6.25;;;4.05;;
50363;SDS011;36272;59.400;17.982;2023-04-06T18:41:59;8.23;;;4.07;;
50363;SDS011;36272;59.400;17.982;2023-04-06T18:47:03;5.70;;;3.25;;
50363;SDS011;36272;59.400;17.982;2023-04-06T18:52:04;4.72;;;3.22;;
50363;SDS011;36272;59.400;17.982;2023-04-06T18:57:06;4.70;;;3.15;;
50363;SDS011;36272;59.400;17.982;2023-04-06T19:02:08;5.05;;;3.40;;
50363;SDS011;36272;59.400;17.982;2023-04-06T19:07:10;8.93;;;3.13;;
50363;SDS011;36272;59.400;17.982;2023-04-06T19:12:11;6.35;;;2.78;;
50363;SDS011;36272;59.400;17.982;2023-04-06T19:17:13;4.40;;;3.20;;
50363;SDS011;36272;59.400;17.982;2023-04-06T19:22:15;3.85;;;3.00;;
50363;SDS011;36272;59.400;17.982;2023-04-06T19:27:17;10.85;;;4.07;;
50363;SDS011;36272;59.400;17.982;2023-04-06T19:32:18;4.03;;;3.10;;
50363;SDS011;36272;59.400;17.982;2023-04-06T19:37:20;4.18;;;3.35;;
50363;SDS011;36272;59.400;17.982;2023-04-06T19:42:22;4.78;;;3.60;;
50363;SDS011;36272;59.400;17.982;2023-04-06T19:47:25;4.32;;;3.30;;
50363;SDS011;36272;59.400;17.982;2023-04-06T19:52:27;5.00;;;3.75;;
50363;SDS011;36272;59.400;17.982;2023-04-06T19:57:28;4.78;;;3.33;;
50363;SDS011;36272;59.400;17.982;2023-04-06T20:02:30;5.85;;;4.13;;
50363;SDS011;36272;59.400;17.982;2023-04-06T20:07:31;6.47;;;4.18;;
50363;SDS011;36272;59.400;17.982;2023-04-06T20:12:33;4.00;;;3.20;;
50363;SDS011;36272;59.400;17.982;2023-04-06T20:17:35;3.83;;;2.97;;
50363;SDS011;36272;59.400;17.982;2023-04-06T20:22:37;5.53;;;3.30;;
50363;SDS011;36272;59.400;17.982;2023-04-06T20:27:38;3.75;;;2.97;;
50363;SDS011;36272;59.400;17.982;2023-04-06T20:32:40;4.65;;;3.25;;
50363;SDS011;36272;59.400;17.982;2023-04-06T20:37:42;5.95;;;3.55;;
50363;SDS011;36272;59.400;17.982;2023-04-06T20:42:44;3.28;;;2.95;;
50363;SDS011;36272;59.400;17.982;2023-04-06T20:47:46;4.40;;;3.45;;
50363;SDS011;36272;59.400;17.982;2023-04-06T20:52:48;3.55;;;2.95;;
50363;SDS011;36272;59.400;17.982;2023-04-06T20:57:49;4.05;;;2.90;;
50363;SDS011;36272;59.400;17.982;2023-04-06T21:02:51;3.30;;;2.70;;
50363;SDS011;36272;59.400;17.982;2023-04-06T21:07:53;4.15;;;2.90;;
50363;SDS011;36272;59.400;17.982;2023-04-06T21:12:55;4.18;;;2.75;;
50363;SDS011;36272;59.400;17.982;2023-04-06T21:17:57;4.05;;;2.50;;
50363;SDS011;36272;59.400;17.982;2023-04-06T21:22:58;3.33;;;2.53;;
50363;SDS011;36272;59.400;17.982;2023-04-06T21:28:00;2.70;;;2.15;;
50363;SDS011;36272;59.400;17.982;2023-04-06T21:33:02;3.50;;;2.05;;
50363;SDS011;36272;59.400;17.982;2023-04-06T21:38:05;2.55;;;1.92;;
50363;SDS011;36272;59.400;17.982;2023-04-06T21:43:07;3.25;;;2.35;;
50363;SDS011;36272;59.400;17.982;2023-04-06T21:48:08;3.70;;;2.30;;
50363;SDS011;36272;59.400;17.982;2023-04-06T21:53:10;3.13;;;2.30;;
50363;SDS011;36272;59.400;17.982;2023-04-06T21:58:13;3.33;;;2.42;;
50363;SDS011;36272;59.400;17.982;2023-04-06T22:03:15;2.70;;;2.15;;
50363;SDS011;36272;59.400;17.982;2023-04-06T22:08:16;3.20;;;2.58;;
50363;SDS011;36272;59.400;17.982;2023-04-06T22:13:18;3.40;;;2.30;;
50363;SDS011;36272;59.400;17.982;2023-04-06T22:18:20;3.65;;;2.58;;
50363;SDS011;36272;59.400;17.982;2023-04-06T22:23:22;3.03;;;2.40;;
50363;SDS011;36272;59.400;17.982;2023-04-06T22:28:24;2.85;;;2.30;;
50363;SDS011;36272;59.400;17.982;2023-04-06T22:33:26;3.97;;;2.83;;
50363;SDS011;36272;59.400;17.982;2023-04-06T22:38:28;7.75;;;3.60;;
50363;SDS011;36272;59.400;17.982;2023-04-06T22:43:30;4.53;;;2.85;;
50363;SDS011;36272;59.400;17.982;2023-04-06T22:48:31;4.30;;;2.80;;
50363;SDS011;36272;59.400;17.982;2023-04-06T22:53:33;3.10;;;2.45;;
50363;SDS011;36272;59.400;17.982;2023-04-06T22:58:35;3.00;;;2.60;;
50363;SDS011;36272;59.400;17.982;2023-04-06T23:03:36;3.45;;;2.90;;
50363;SDS011;36272;59.400;17.982;2023-04-06T23:08:38;4.07;;;2.75;;
50363;SDS011;36272;59.400;17.982;2023-04-06T23:13:40;4.07;;;2.67;;
50363;SDS011;36272;59.400;17.982;2023-04-06T23:18:41;3.60;;;3.00;;
50363;SDS011;36272;59.400;17.982;2023-04-06T23:23:43;3.30;;;2.60;;
50363;SDS011;36272;59.400;17.982;2023-04-06T23:28:45;3.92;;;2.60;;
50363;SDS011;36272;59.400;17.982;2023-04-06T23:33:46;3.85;;;2.60;;
50363;SDS011;36272;59.400;17.982;2023-04-06T23:38:49;3.60;;;3.00;;
50363;SDS011;36272;59.400;17.982;2023-04-06T23:43:51;3.55;;;3.05;;
50363;SDS011;36272;59.400;17.982;2023-04-06T23:48:53;3.40;;;2.75;;
50363;SDS011;36272;59.400;17.982;2023-04-06T23:53:54;5.00;;;3.15;;
50363;SDS011;36272;59.400;17.982;2023-04-06T23:58:56;4.07;;;3.10;;
